Prague, Czech Republic
Current Conditions -  °F | °C
As of 7:00 AM on Sunday 21 Dec 2014 (Local Time) from LKKB Reporting Station
Overcast Overcast  
Wind Chill: 28°   Ceiling: 4000
Heat Index: 37°   Visibility: 6mi
Dew Point: 28°   Wind: 16mph
Humidity: 70%   Direction: 260°W
Pressure: 30.18"   Gusts: NA
Location:  50.08°N, 14.43°E
Report Text: LKKB 210500Z 26014KT 9999 OVC040 03/M02 Q1022 NOSIG
Loading
Personal Weather Stations






























Interactive Weather Map New forecast layout! Learn more

10-Day Weather Forecast

Advertisements
Track Severe Weather on mobile